sensor_id;sensor_type;location;lat;lon;timestamp;P1;durP1;ratioP1;P2;durP2;ratioP2
7807;SDS011;3949;49.254;8.894;2023-02-01T00:01:27;3.33;;;3.03;;
7807;SDS011;3949;49.254;8.894;2023-02-01T00:03:53;3.83;;;3.50;;
7807;SDS011;3949;49.254;8.894;2023-02-01T00:06:19;3.87;;;3.50;;
7807;SDS011;3949;49.254;8.894;2023-02-01T00:08:45;4.53;;;3.70;;
7807;SDS011;3949;49.254;8.894;2023-02-01T00:11:11;4.30;;;3.73;;
7807;SDS011;3949;49.254;8.894;2023-02-01T00:13:39;4.47;;;4.07;;
7807;SDS011;3949;49.254;8.894;2023-02-01T00:16:05;5.43;;;3.63;;
7807;SDS011;3949;49.254;8.894;2023-02-01T00:18:31;4.40;;;3.93;;
7807;SDS011;3949;49.254;8.894;2023-02-01T00:20:58;4.87;;;3.80;;
7807;SDS011;3949;49.254;8.894;2023-02-01T00:23:24;4.47;;;3.77;;
7807;SDS011;3949;49.254;8.894;2023-02-01T00:25:50;6.37;;;4.20;;
7807;SDS011;3949;49.254;8.894;2023-02-01T00:28:16;5.13;;;4.00;;
7807;SDS011;3949;49.254;8.894;2023-02-01T00:30:42;6.13;;;4.27;;
7807;SDS011;3949;49.254;8.894;2023-02-01T00:33:08;5.40;;;4.10;;
7807;SDS011;3949;49.254;8.894;2023-02-01T00:35:34;5.30;;;4.10;;
7807;SDS011;3949;49.254;8.894;2023-02-01T00:38:00;5.00;;;4.17;;
7807;SDS011;3949;49.254;8.894;2023-02-01T00:40:26;6.33;;;4.50;;
7807;SDS011;3949;49.254;8.894;2023-02-01T00:42:52;5.97;;;4.10;;
7807;SDS011;3949;49.254;8.894;2023-02-01T00:45:19;5.30;;;4.40;;
7807;SDS011;3949;49.254;8.894;2023-02-01T00:47:45;6.80;;;4.53;;
7807;SDS011;3949;49.254;8.894;2023-02-01T00:50:11;4.87;;;4.30;;
7807;SDS011;3949;49.254;8.894;2023-02-01T00:52:37;5.67;;;4.27;;
7807;SDS011;3949;49.254;8.894;2023-02-01T00:55:03;5.20;;;4.07;;
7807;SDS011;3949;49.254;8.894;2023-02-01T00:57:29;5.33;;;4.33;;
7807;SDS011;3949;49.254;8.894;2023-02-01T00:59:55;5.27;;;4.47;;
7807;SDS011;3949;49.254;8.894;2023-02-01T01:02:21;6.87;;;4.50;;
7807;SDS011;3949;49.254;8.894;2023-02-01T01:04:47;4.90;;;4.40;;
7807;SDS011;3949;49.254;8.894;2023-02-01T01:07:13;5.33;;;4.53;;
7807;SDS011;3949;49.254;8.894;2023-02-01T01:09:39;5.40;;;4.20;;
7807;SDS011;3949;49.254;8.894;2023-02-01T01:12:05;5.40;;;4.10;;
7807;SDS011;3949;49.254;8.894;2023-02-01T01:14:31;5.03;;;4.30;;
7807;SDS011;3949;49.254;8.894;2023-02-01T01:16:57;6.23;;;4.43;;
7807;SDS011;3949;49.254;8.894;2023-02-01T01:19:23;4.47;;;4.07;;
7807;SDS011;3949;49.254;8.894;2023-02-01T01:21:49;5.60;;;3.83;;
7807;SDS011;3949;49.254;8.894;2023-02-01T01:24:15;5.23;;;4.23;;
7807;SDS011;3949;49.254;8.894;2023-02-01T01:26:41;5.47;;;4.20;;
7807;SDS011;3949;49.254;8.894;2023-02-01T01:29:08;5.10;;;4.60;;
7807;SDS011;3949;49.254;8.894;2023-02-01T01:31:35;4.77;;;3.93;;
7807;SDS011;3949;49.254;8.894;2023-02-01T01:34:02;4.93;;;4.43;;
7807;SDS011;3949;49.254;8.894;2023-02-01T01:36:28;5.50;;;4.40;;
7807;SDS011;3949;49.254;8.894;2023-02-01T01:38:54;5.30;;;4.50;;
7807;SDS011;3949;49.254;8.894;2023-02-01T01:41:22;4.77;;;4.37;;
7807;SDS011;3949;49.254;8.894;2023-02-01T01:44:03;5.07;;;4.07;;
7807;SDS011;3949;49.254;8.894;2023-02-01T01:46:33;4.37;;;3.97;;
7807;SDS011;3949;49.254;8.894;2023-02-01T01:51:28;4.33;;;3.93;;
7807;SDS011;3949;49.254;8.894;2023-02-01T01:53:58;4.20;;;3.80;;
7807;SDS011;3949;49.254;8.894;2023-02-01T01:56:25;4.70;;;4.20;;
7807;SDS011;3949;49.254;8.894;2023-02-01T01:58:52;3.93;;;3.50;;
7807;SDS011;3949;49.254;8.894;2023-02-01T02:01:19;4.27;;;3.87;;
7807;SDS011;3949;49.254;8.894;2023-02-01T02:03:45;4.73;;;4.13;;
7807;SDS011;3949;49.254;8.894;2023-02-01T02:08:57;4.07;;;3.73;;
7807;SDS011;3949;49.254;8.894;2023-02-01T02:11:23;5.23;;;4.23;;
7807;SDS011;3949;49.254;8.894;2023-02-01T02:13:50;4.37;;;3.97;;
7807;SDS011;3949;49.254;8.894;2023-02-01T02:16:19;6.07;;;4.20;;
7807;SDS011;3949;49.254;8.894;2023-02-01T02:21:26;4.93;;;4.17;;
7807;SDS011;3949;49.254;8.894;2023-02-01T02:32:06;5.87;;;4.23;;
7807;SDS011;3949;49.254;8.894;2023-02-01T02:34:39;5.50;;;3.20;;
7807;SDS011;3949;49.254;8.894;2023-02-01T02:37:54;4.90;;;4.00;;
7807;SDS011;3949;49.254;8.894;2023-02-01T02:39:59;4.43;;;3.50;;
7807;SDS011;3949;49.254;8.894;2023-02-01T02:45:37;6.73;;;3.93;;
7807;SDS011;3949;49.254;8.894;2023-02-01T02:53:38;3.43;;;3.13;;
7807;SDS011;3949;49.254;8.894;2023-02-01T02:56:44;3.40;;;2.90;;
7807;SDS011;3949;49.254;8.894;2023-02-01T02:59:28;4.13;;;2.97;;
7807;SDS011;3949;49.254;8.894;2023-02-01T03:02:15;3.23;;;2.90;;
7807;SDS011;3949;49.254;8.894;2023-02-01T03:05:00;3.00;;;2.70;;
7807;SDS011;3949;49.254;8.894;2023-02-01T03:10:08;3.90;;;2.70;;
7807;SDS011;3949;49.254;8.894;2023-02-01T03:12:36;3.83;;;3.10;;
7807;SDS011;3949;49.254;8.894;2023-02-01T03:15:32;4.17;;;3.60;;
7807;SDS011;3949;49.254;8.894;2023-02-01T03:18:00;4.07;;;3.07;;
7807;SDS011;3949;49.254;8.894;2023-02-01T03:20:27;3.60;;;2.90;;
7807;SDS011;3949;49.254;8.894;2023-02-01T03:22:54;3.10;;;2.80;;
7807;SDS011;3949;49.254;8.894;2023-02-01T03:25:21;4.63;;;3.33;;
7807;SDS011;3949;49.254;8.894;2023-02-01T03:27:50;3.83;;;3.00;;
7807;SDS011;3949;49.254;8.894;2023-02-01T03:30:21;4.63;;;3.20;;
7807;SDS011;3949;49.254;8.894;2023-02-01T03:32:49;3.90;;;3.07;;
7807;SDS011;3949;49.254;8.894;2023-02-01T03:35:26;3.70;;;3.33;;
7807;SDS011;3949;49.254;8.894;2023-02-01T03:37:54;4.20;;;2.87;;
7807;SDS011;3949;49.254;8.894;2023-02-01T03:40:22;3.50;;;3.20;;
7807;SDS011;3949;49.254;8.894;2023-02-01T03:42:49;3.33;;;3.00;;
7807;SDS011;3949;49.254;8.894;2023-02-01T03:45:18;3.67;;;2.90;;
7807;SDS011;3949;49.254;8.894;2023-02-01T03:47:47;3.40;;;3.03;;
7807;SDS011;3949;49.254;8.894;2023-02-01T03:50:15;3.93;;;3.17;;
7807;SDS011;3949;49.254;8.894;2023-02-01T03:52:43;5.20;;;4.33;;
7807;SDS011;3949;49.254;8.894;2023-02-01T03:55:10;3.73;;;3.13;;
7807;SDS011;3949;49.254;8.894;2023-02-01T03:57:39;3.53;;;3.20;;
7807;SDS011;3949;49.254;8.894;2023-02-01T04:00:08;3.63;;;3.20;;
7807;SDS011;3949;49.254;8.894;2023-02-01T04:02:36;3.63;;;3.10;;
7807;SDS011;3949;49.254;8.894;2023-02-01T04:05:02;2.87;;;2.60;;
7807;SDS011;3949;49.254;8.894;2023-02-01T04:07:28;3.37;;;3.07;;
7807;SDS011;3949;49.254;8.894;2023-02-01T04:09:54;3.90;;;2.90;;
7807;SDS011;3949;49.254;8.894;2023-02-01T04:12:20;4.17;;;2.90;;
7807;SDS011;3949;49.254;8.894;2023-02-01T04:14:47;4.37;;;2.80;;
7807;SDS011;3949;49.254;8.894;2023-02-01T04:17:13;5.30;;;3.87;;
7807;SDS011;3949;49.254;8.894;2023-02-01T04:19:39;3.40;;;3.07;;
7807;SDS011;3949;49.254;8.894;2023-02-01T04:22:05;3.97;;;2.90;;
7807;SDS011;3949;49.254;8.894;2023-02-01T04:24:31;4.30;;;3.40;;
7807;SDS011;3949;49.254;8.894;2023-02-01T04:26:57;4.37;;;2.80;;
7807;SDS011;3949;49.254;8.894;2023-02-01T04:29:23;3.70;;;3.30;;
7807;SDS011;3949;49.254;8.894;2023-02-01T04:31:49;4.87;;;3.20;;
7807;SDS011;3949;49.254;8.894;2023-02-01T04:34:15;3.40;;;3.10;;
7807;SDS011;3949;49.254;8.894;2023-02-01T04:36:41;4.00;;;3.30;;
7807;SDS011;3949;49.254;8.894;2023-02-01T04:39:08;3.70;;;3.13;;
7807;SDS011;3949;49.254;8.894;2023-02-01T04:41:34;4.10;;;3.07;;
7807;SDS011;3949;49.254;8.894;2023-02-01T04:44:00;4.37;;;3.47;;
7807;SDS011;3949;49.254;8.894;2023-02-01T04:46:26;3.90;;;2.90;;
7807;SDS011;3949;49.254;8.894;2023-02-01T04:48:52;3.60;;;3.20;;
7807;SDS011;3949;49.254;8.894;2023-02-01T04:51:18;3.47;;;3.17;;
7807;SDS011;3949;49.254;8.894;2023-02-01T04:53:44;4.17;;;3.10;;
7807;SDS011;3949;49.254;8.894;2023-02-01T04:56:10;4.47;;;3.20;;
7807;SDS011;3949;49.254;8.894;2023-02-01T04:58:36;4.10;;;3.23;;
7807;SDS011;3949;49.254;8.894;2023-02-01T05:01:03;3.80;;;3.37;;
7807;SDS011;3949;49.254;8.894;2023-02-01T05:03:30;3.63;;;3.00;;
7807;SDS011;3949;49.254;8.894;2023-02-01T05:05:55;3.60;;;3.00;;
7807;SDS011;3949;49.254;8.894;2023-02-01T05:08:22;2.93;;;2.70;;
7807;SDS011;3949;49.254;8.894;2023-02-01T05:10:50;3.73;;;3.33;;
7807;SDS011;3949;49.254;8.894;2023-02-01T05:13:16;4.57;;;2.90;;
7807;SDS011;3949;49.254;8.894;2023-02-01T05:16:01;3.13;;;2.90;;
7807;SDS011;3949;49.254;8.894;2023-02-01T05:18:26;5.17;;;3.00;;
7807;SDS011;3949;49.254;8.894;2023-02-01T05:20:52;3.10;;;2.80;;
7807;SDS011;3949;49.254;8.894;2023-02-01T05:23:18;3.23;;;2.93;;
7807;SDS011;3949;49.254;8.894;2023-02-01T05:25:44;2.80;;;2.47;;
7807;SDS011;3949;49.254;8.894;2023-02-01T05:28:10;4.07;;;2.87;;
7807;SDS011;3949;49.254;8.894;2023-02-01T05:30:36;3.47;;;2.97;;
7807;SDS011;3949;49.254;8.894;2023-02-01T05:33:02;3.77;;;3.10;;
7807;SDS011;3949;49.254;8.894;2023-02-01T05:35:29;3.73;;;3.03;;
7807;SDS011;3949;49.254;8.894;2023-02-01T05:37:55;5.23;;;3.43;;
7807;SDS011;3949;49.254;8.894;2023-02-01T05:40:21;3.50;;;3.20;;
7807;SDS011;3949;49.254;8.894;2023-02-01T05:42:47;4.43;;;3.30;;
7807;SDS011;3949;49.254;8.894;2023-02-01T05:45:13;5.67;;;3.20;;
7807;SDS011;3949;49.254;8.894;2023-02-01T05:47:39;4.27;;;3.60;;
7807;SDS011;3949;49.254;8.894;2023-02-01T05:50:05;5.10;;;3.10;;
7807;SDS011;3949;49.254;8.894;2023-02-01T05:52:31;4.93;;;3.70;;
7807;SDS011;3949;49.254;8.894;2023-02-01T05:54:57;4.37;;;3.30;;
7807;SDS011;3949;49.254;8.894;2023-02-01T05:57:23;6.37;;;3.30;;
7807;SDS011;3949;49.254;8.894;2023-02-01T05:59:49;4.03;;;3.30;;
7807;SDS011;3949;49.254;8.894;2023-02-01T06:02:15;5.00;;;3.23;;
7807;SDS011;3949;49.254;8.894;2023-02-01T06:04:41;3.63;;;2.80;;
7807;SDS011;3949;49.254;8.894;2023-02-01T06:07:08;4.50;;;2.80;;
7807;SDS011;3949;49.254;8.894;2023-02-01T06:09:35;3.93;;;3.20;;
7807;SDS011;3949;49.254;8.894;2023-02-01T06:12:01;4.63;;;3.27;;
7807;SDS011;3949;49.254;8.894;2023-02-01T06:14:27;5.47;;;3.83;;
7807;SDS011;3949;49.254;8.894;2023-02-01T06:16:54;4.43;;;4.00;;
7807;SDS011;3949;49.254;8.894;2023-02-01T06:19:20;5.80;;;3.93;;
7807;SDS011;3949;49.254;8.894;2023-02-01T06:21:46;4.70;;;3.87;;
7807;SDS011;3949;49.254;8.894;2023-02-01T06:24:12;4.93;;;3.90;;
7807;SDS011;3949;49.254;8.894;2023-02-01T06:26:38;5.13;;;3.67;;
7807;SDS011;3949;49.254;8.894;2023-02-01T06:29:05;5.67;;;4.00;;
7807;SDS011;3949;49.254;8.894;2023-02-01T06:31:31;5.90;;;4.60;;
7807;SDS011;3949;49.254;8.894;2023-02-01T06:33:57;5.27;;;3.97;;
7807;SDS011;3949;49.254;8.894;2023-02-01T06:36:23;6.40;;;5.10;;
7807;SDS011;3949;49.254;8.894;2023-02-01T06:38:49;5.80;;;4.60;;
7807;SDS011;3949;49.254;8.894;2023-02-01T06:41:15;5.67;;;4.40;;
7807;SDS011;3949;49.254;8.894;2023-02-01T06:43:42;6.30;;;4.77;;
7807;SDS011;3949;49.254;8.894;2023-02-01T06:46:09;9.07;;;4.90;;
7807;SDS011;3949;49.254;8.894;2023-02-01T06:48:36;6.40;;;4.90;;
7807;SDS011;3949;49.254;8.894;2023-02-01T06:51:03;5.43;;;4.37;;
7807;SDS011;3949;49.254;8.894;2023-02-01T06:53:29;6.03;;;4.30;;
7807;SDS011;3949;49.254;8.894;2023-02-01T06:55:56;5.67;;;4.17;;
7807;SDS011;3949;49.254;8.894;2023-02-01T06:58:23;5.80;;;4.83;;
7807;SDS011;3949;49.254;8.894;2023-02-01T07:00:49;8.60;;;4.70;;
7807;SDS011;3949;49.254;8.894;2023-02-01T07:03:15;6.67;;;4.70;;
7807;SDS011;3949;49.254;8.894;2023-02-01T07:05:41;5.73;;;4.23;;
7807;SDS011;3949;49.254;8.894;2023-02-01T07:08:07;6.60;;;4.43;;
7807;SDS011;3949;49.254;8.894;2023-02-01T07:10:33;5.27;;;4.40;;
7807;SDS011;3949;49.254;8.894;2023-02-01T07:12:59;4.80;;;4.27;;
7807;SDS011;3949;49.254;8.894;2023-02-01T07:15:25;4.97;;;4.23;;
7807;SDS011;3949;49.254;8.894;2023-02-01T07:17:54;5.67;;;4.57;;
7807;SDS011;3949;49.254;8.894;2023-02-01T07:20:20;6.57;;;5.10;;
7807;SDS011;3949;49.254;8.894;2023-02-01T07:22:46;5.40;;;4.37;;
7807;SDS011;3949;49.254;8.894;2023-02-01T07:25:12;4.80;;;3.97;;
7807;SDS011;3949;49.254;8.894;2023-02-01T07:27:38;7.73;;;4.07;;
7807;SDS011;3949;49.254;8.894;2023-02-01T07:30:04;5.97;;;3.93;;
7807;SDS011;3949;49.254;8.894;2023-02-01T07:32:30;5.97;;;4.43;;
7807;SDS011;3949;49.254;8.894;2023-02-01T07:34:57;6.53;;;3.83;;
7807;SDS011;3949;49.254;8.894;2023-02-01T07:37:23;4.83;;;3.40;;
7807;SDS011;3949;49.254;8.894;2023-02-01T07:39:50;4.40;;;3.63;;
7807;SDS011;3949;49.254;8.894;2023-02-01T07:42:16;3.90;;;3.50;;
7807;SDS011;3949;49.254;8.894;2023-02-01T07:44:42;5.50;;;4.00;;
7807;SDS011;3949;49.254;8.894;2023-02-01T07:47:08;8.33;;;4.63;;
7807;SDS011;3949;49.254;8.894;2023-02-01T07:49:34;5.77;;;4.70;;
7807;SDS011;3949;49.254;8.894;2023-02-01T07:52:00;7.23;;;4.70;;
7807;SDS011;3949;49.254;8.894;2023-02-01T07:54:26;7.63;;;5.17;;
7807;SDS011;3949;49.254;8.894;2023-02-01T07:56:52;5.33;;;4.83;;
7807;SDS011;3949;49.254;8.894;2023-02-01T07:59:18;6.80;;;4.37;;
7807;SDS011;3949;49.254;8.894;2023-02-01T08:01:44;9.37;;;4.60;;
7807;SDS011;3949;49.254;8.894;2023-02-01T08:04:13;8.30;;;5.10;;
7807;SDS011;3949;49.254;8.894;2023-02-01T08:06:39;7.63;;;4.50;;
7807;SDS011;3949;49.254;8.894;2023-02-01T08:09:05;7.00;;;4.90;;
7807;SDS011;3949;49.254;8.894;2023-02-01T08:11:33;7.57;;;5.00;;
7807;SDS011;3949;49.254;8.894;2023-02-01T08:13:59;8.93;;;4.80;;
7807;SDS011;3949;49.254;8.894;2023-02-01T08:16:25;6.20;;;4.67;;
7807;SDS011;3949;49.254;8.894;2023-02-01T08:18:52;6.47;;;4.30;;
7807;SDS011;3949;49.254;8.894;2023-02-01T08:21:22;6.23;;;4.43;;
7807;SDS011;3949;49.254;8.894;2023-02-01T08:23:49;8.30;;;4.50;;
7807;SDS011;3949;49.254;8.894;2023-02-01T08:26:16;6.10;;;4.23;;
7807;SDS011;3949;49.254;8.894;2023-02-01T08:28:49;7.50;;;4.93;;
7807;SDS011;3949;49.254;8.894;2023-02-01T08:31:17;6.43;;;4.47;;
7807;SDS011;3949;49.254;8.894;2023-02-01T08:33:43;8.03;;;4.90;;
7807;SDS011;3949;49.254;8.894;2023-02-01T08:36:10;12.03;;;5.33;;
7807;SDS011;3949;49.254;8.894;2023-02-01T08:38:37;9.73;;;6.23;;
7807;SDS011;3949;49.254;8.894;2023-02-01T08:41:07;6.63;;;4.43;;
7807;SDS011;3949;49.254;8.894;2023-02-01T08:43:33;7.87;;;5.77;;
7807;SDS011;3949;49.254;8.894;2023-02-01T08:45:59;8.67;;;4.77;;
7807;SDS011;3949;49.254;8.894;2023-02-01T08:48:25;9.93;;;4.73;;
7807;SDS011;3949;49.254;8.894;2023-02-01T08:50:51;9.07;;;4.77;;
7807;SDS011;3949;49.254;8.894;2023-02-01T08:53:17;9.33;;;4.93;;
7807;SDS011;3949;49.254;8.894;2023-02-01T08:55:45;10.17;;;5.30;;
7807;SDS011;3949;49.254;8.894;2023-02-01T08:58:11;7.10;;;4.70;;
7807;SDS011;3949;49.254;8.894;2023-02-01T09:00:38;6.43;;;4.40;;
7807;SDS011;3949;49.254;8.894;2023-02-01T09:03:04;10.90;;;5.53;;
7807;SDS011;3949;49.254;8.894;2023-02-01T09:05:30;9.00;;;4.60;;
7807;SDS011;3949;49.254;8.894;2023-02-01T09:07:56;6.77;;;4.63;;
7807;SDS011;3949;49.254;8.894;2023-02-01T09:10:22;11.07;;;4.40;;
7807;SDS011;3949;49.254;8.894;2023-02-01T09:12:48;7.07;;;4.40;;
7807;SDS011;3949;49.254;8.894;2023-02-01T09:15:14;7.07;;;3.80;;
7807;SDS011;3949;49.254;8.894;2023-02-01T09:17:40;8.73;;;4.70;;
7807;SDS011;3949;49.254;8.894;2023-02-01T09:20:08;6.30;;;3.77;;
7807;SDS011;3949;49.254;8.894;2023-02-01T09:22:34;5.10;;;3.40;;
7807;SDS011;3949;49.254;8.894;2023-02-01T09:25:00;6.63;;;4.07;;
7807;SDS011;3949;49.254;8.894;2023-02-01T09:27:26;8.50;;;4.60;;
7807;SDS011;3949;49.254;8.894;2023-02-01T09:29:52;8.60;;;4.50;;
7807;SDS011;3949;49.254;8.894;2023-02-01T09:32:22;6.00;;;4.10;;
7807;SDS011;3949;49.254;8.894;2023-02-01T09:34:52;7.97;;;4.40;;
7807;SDS011;3949;49.254;8.894;2023-02-01T09:37:18;6.30;;;3.40;;
7807;SDS011;3949;49.254;8.894;2023-02-01T09:39:44;7.70;;;4.00;;
7807;SDS011;3949;49.254;8.894;2023-02-01T09:42:21;8.57;;;4.10;;
7807;SDS011;3949;49.254;8.894;2023-02-01T09:47:29;9.00;;;4.20;;
7807;SDS011;3949;49.254;8.894;2023-02-01T09:50:00;11.63;;;4.33;;
7807;SDS011;3949;49.254;8.894;2023-02-01T09:52:40;9.33;;;3.80;;
7807;SDS011;3949;49.254;8.894;2023-02-01T09:55:14;7.67;;;4.37;;
7807;SDS011;3949;49.254;8.894;2023-02-01T09:57:44;8.83;;;4.30;;
7807;SDS011;3949;49.254;8.894;2023-02-01T10:00:21;9.93;;;4.37;;
7807;SDS011;3949;49.254;8.894;2023-02-01T10:02:48;10.53;;;4.50;;
7807;SDS011;3949;49.254;8.894;2023-02-01T10:05:16;9.60;;;4.10;;
7807;SDS011;3949;49.254;8.894;2023-02-01T10:07:51;9.93;;;4.43;;
7807;SDS011;3949;49.254;8.894;2023-02-01T10:10:26;7.37;;;3.50;;
7807;SDS011;3949;49.254;8.894;2023-02-01T10:18:23;11.37;;;3.67;;
7807;SDS011;3949;49.254;8.894;2023-02-01T10:25:55;11.90;;;3.80;;
7807;SDS011;3949;49.254;8.894;2023-02-01T10:28:21;9.33;;;3.17;;
7807;SDS011;3949;49.254;8.894;2023-02-01T10:30:49;5.53;;;3.03;;
7807;SDS011;3949;49.254;8.894;2023-02-01T10:33:21;9.77;;;3.47;;
7807;SDS011;3949;49.254;8.894;2023-02-01T10:35:50;7.90;;;3.17;;
7807;SDS011;3949;49.254;8.894;2023-02-01T10:38:25;9.03;;;3.77;;
7807;SDS011;3949;49.254;8.894;2023-02-01T10:40:53;7.37;;;3.60;;
7807;SDS011;3949;49.254;8.894;2023-02-01T10:43:20;7.00;;;2.90;;
7807;SDS011;3949;49.254;8.894;2023-02-01T10:45:47;10.83;;;3.23;;
7807;SDS011;3949;49.254;8.894;2023-02-01T10:48:13;7.03;;;3.00;;
7807;SDS011;3949;49.254;8.894;2023-02-01T10:50:53;12.17;;;3.40;;
7807;SDS011;3949;49.254;8.894;2023-02-01T10:53:21;6.17;;;2.77;;
7807;SDS011;3949;49.254;8.894;2023-02-01T10:55:49;9.17;;;3.23;;
7807;SDS011;3949;49.254;8.894;2023-02-01T10:58:17;9.17;;;3.57;;
7807;SDS011;3949;49.254;8.894;2023-02-01T11:00:48;8.27;;;3.40;;
7807;SDS011;3949;49.254;8.894;2023-02-01T11:03:34;10.40;;;3.33;;
7807;SDS011;3949;49.254;8.894;2023-02-01T11:06:51;9.47;;;3.67;;
7807;SDS011;3949;49.254;8.894;2023-02-01T11:08:55;9.57;;;3.43;;
7807;SDS011;3949;49.254;8.894;2023-02-01T11:11:21;9.53;;;3.33;;
7807;SDS011;3949;49.254;8.894;2023-02-01T11:13:51;9.60;;;3.67;;
7807;SDS011;3949;49.254;8.894;2023-02-01T11:16:18;8.27;;;3.50;;
7807;SDS011;3949;49.254;8.894;2023-02-01T11:18:44;7.00;;;3.53;;
7807;SDS011;3949;49.254;8.894;2023-02-01T11:21:11;10.40;;;2.90;;
7807;SDS011;3949;49.254;8.894;2023-02-01T11:23:40;8.23;;;2.97;;
7807;SDS011;3949;49.254;8.894;2023-02-01T11:26:09;8.23;;;3.03;;
7807;SDS011;3949;49.254;8.894;2023-02-01T11:28:37;6.37;;;3.23;;
7807;SDS011;3949;49.254;8.894;2023-02-01T11:31:04;9.97;;;3.60;;
7807;SDS011;3949;49.254;8.894;2023-02-01T11:33:34;7.63;;;3.27;;
7807;SDS011;3949;49.254;8.894;2023-02-01T11:36:07;10.57;;;3.40;;
7807;SDS011;3949;49.254;8.894;2023-02-01T11:38:34;7.17;;;3.23;;
7807;SDS011;3949;49.254;8.894;2023-02-01T11:43:59;7.53;;;2.97;;
7807;SDS011;3949;49.254;8.894;2023-02-01T11:46:30;8.90;;;3.63;;
7807;SDS011;3949;49.254;8.894;2023-02-01T11:48:57;10.03;;;3.43;;
7807;SDS011;3949;49.254;8.894;2023-02-01T11:51:51;6.67;;;3.20;;
7807;SDS011;3949;49.254;8.894;2023-02-01T12:07:43;8.90;;;2.83;;
7807;SDS011;3949;49.254;8.894;2023-02-01T12:15:32;7.83;;;3.90;;
7807;SDS011;3949;49.254;8.894;2023-02-01T12:34:01;10.77;;;3.17;;
7807;SDS011;3949;49.254;8.894;2023-02-01T12:36:28;10.43;;;3.43;;
7807;SDS011;3949;49.254;8.894;2023-02-01T12:41:40;9.33;;;3.90;;
7807;SDS011;3949;49.254;8.894;2023-02-01T12:44:15;8.43;;;3.13;;
7807;SDS011;3949;49.254;8.894;2023-02-01T12:46:47;10.83;;;3.70;;
7807;SDS011;3949;49.254;8.894;2023-02-01T12:49:16;9.33;;;2.87;;
7807;SDS011;3949;49.254;8.894;2023-02-01T12:51:44;10.83;;;2.87;;
7807;SDS011;3949;49.254;8.894;2023-02-01T12:54:18;8.80;;;3.57;;
7807;SDS011;3949;49.254;8.894;2023-02-01T12:56:55;9.33;;;3.00;;
7807;SDS011;3949;49.254;8.894;2023-02-01T12:59:27;8.43;;;2.80;;
7807;SDS011;3949;49.254;8.894;2023-02-01T13:01:56;12.07;;;3.23;;
7807;SDS011;3949;49.254;8.894;2023-02-01T13:04:32;6.37;;;2.63;;
7807;SDS011;3949;49.254;8.894;2023-02-01T13:12:02;10.23;;;2.83;;
7807;SDS011;3949;49.254;8.894;2023-02-01T13:14:38;11.83;;;3.17;;
7807;SDS011;3949;49.254;8.894;2023-02-01T13:17:09;8.20;;;2.63;;
7807;SDS011;3949;49.254;8.894;2023-02-01T13:19:48;8.67;;;2.70;;
7807;SDS011;3949;49.254;8.894;2023-02-01T13:22:17;6.97;;;2.90;;
7807;SDS011;3949;49.254;8.894;2023-02-01T13:24:47;11.23;;;2.80;;
7807;SDS011;3949;49.254;8.894;2023-02-01T13:27:16;10.20;;;3.03;;
7807;SDS011;3949;49.254;8.894;2023-02-01T13:29:59;7.63;;;2.40;;
7807;SDS011;3949;49.254;8.894;2023-02-01T13:32:30;8.23;;;2.70;;
7807;SDS011;3949;49.254;8.894;2023-02-01T13:37:54;10.73;;;2.97;;
7807;SDS011;3949;49.254;8.894;2023-02-01T13:40:41;7.30;;;2.53;;
7807;SDS011;3949;49.254;8.894;2023-02-01T13:45:36;7.23;;;2.77;;
7807;SDS011;3949;49.254;8.894;2023-02-01T13:48:14;5.87;;;2.33;;
7807;SDS011;3949;49.254;8.894;2023-02-01T13:50:43;9.13;;;4.17;;
7807;SDS011;3949;49.254;8.894;2023-02-01T13:53:17;7.10;;;2.80;;
7807;SDS011;3949;49.254;8.894;2023-02-01T13:55:45;9.23;;;2.80;;
7807;SDS011;3949;49.254;8.894;2023-02-01T14:00:41;8.00;;;2.67;;
7807;SDS011;3949;49.254;8.894;2023-02-01T14:03:22;7.63;;;2.47;;
7807;SDS011;3949;49.254;8.894;2023-02-01T14:06:14;4.63;;;2.20;;
7807;SDS011;3949;49.254;8.894;2023-02-01T14:08:41;5.30;;;2.80;;
7807;SDS011;3949;49.254;8.894;2023-02-01T14:11:30;6.80;;;2.83;;
7807;SDS011;3949;49.254;8.894;2023-02-01T14:13:53;7.00;;;2.80;;
7807;SDS011;3949;49.254;8.894;2023-02-01T14:16:19;10.03;;;3.60;;
7807;SDS011;3949;49.254;8.894;2023-02-01T14:18:54;5.87;;;2.10;;
7807;SDS011;3949;49.254;8.894;2023-02-01T14:21:27;6.27;;;2.50;;
7807;SDS011;3949;49.254;8.894;2023-02-01T14:26:24;8.00;;;2.57;;
7807;SDS011;3949;49.254;8.894;2023-02-01T14:31:22;7.27;;;2.40;;
7807;SDS011;3949;49.254;8.894;2023-02-01T14:33:57;12.40;;;2.53;;
7807;SDS011;3949;49.254;8.894;2023-02-01T14:36:24;8.37;;;2.70;;
7807;SDS011;3949;49.254;8.894;2023-02-01T14:38:51;6.03;;;2.43;;
7807;SDS011;3949;49.254;8.894;2023-02-01T14:41:32;7.57;;;2.90;;
7807;SDS011;3949;49.254;8.894;2023-02-01T14:49:12;7.43;;;2.50;;
7807;SDS011;3949;49.254;8.894;2023-02-01T14:51:38;7.03;;;2.40;;
7807;SDS011;3949;49.254;8.894;2023-02-01T14:54:04;5.90;;;2.50;;
7807;SDS011;3949;49.254;8.894;2023-02-01T14:56:30;8.30;;;3.20;;
7807;SDS011;3949;49.254;8.894;2023-02-01T14:58:57;7.73;;;2.60;;
7807;SDS011;3949;49.254;8.894;2023-02-01T15:01:28;5.77;;;2.50;;
7807;SDS011;3949;49.254;8.894;2023-02-01T15:04:01;6.40;;;2.50;;
7807;SDS011;3949;49.254;8.894;2023-02-01T15:09:02;7.23;;;2.57;;
7807;SDS011;3949;49.254;8.894;2023-02-01T15:11:29;8.10;;;2.47;;
7807;SDS011;3949;49.254;8.894;2023-02-01T15:13:55;10.17;;;3.20;;
7807;SDS011;3949;49.254;8.894;2023-02-01T15:16:23;8.07;;;2.33;;
7807;SDS011;3949;49.254;8.894;2023-02-01T15:18:49;9.07;;;2.80;;
7807;SDS011;3949;49.254;8.894;2023-02-01T15:21:20;8.33;;;2.80;;
7807;SDS011;3949;49.254;8.894;2023-02-01T15:23:46;7.63;;;2.53;;
7807;SDS011;3949;49.254;8.894;2023-02-01T15:26:26;7.33;;;2.77;;
7807;SDS011;3949;49.254;8.894;2023-02-01T15:28:52;8.93;;;3.07;;
7807;SDS011;3949;49.254;8.894;2023-02-01T15:31:30;6.13;;;2.77;;
7807;SDS011;3949;49.254;8.894;2023-02-01T15:33:57;6.70;;;2.20;;
7807;SDS011;3949;49.254;8.894;2023-02-01T15:36:23;9.10;;;2.70;;
7807;SDS011;3949;49.254;8.894;2023-02-01T15:41:36;10.47;;;4.10;;
7807;SDS011;3949;49.254;8.894;2023-02-01T15:46:41;9.00;;;2.60;;
7807;SDS011;3949;49.254;8.894;2023-02-01T15:49:51;7.83;;;2.40;;
7807;SDS011;3949;49.254;8.894;2023-02-01T15:52:00;5.83;;;2.40;;
7807;SDS011;3949;49.254;8.894;2023-02-01T15:54:29;7.63;;;2.77;;
7807;SDS011;3949;49.254;8.894;2023-02-01T15:56:56;7.27;;;3.07;;
7807;SDS011;3949;49.254;8.894;2023-02-01T15:59:24;7.87;;;2.60;;
7807;SDS011;3949;49.254;8.894;2023-02-01T16:01:51;5.17;;;2.37;;
7807;SDS011;3949;49.254;8.894;2023-02-01T16:06:47;6.50;;;2.30;;
7807;SDS011;3949;49.254;8.894;2023-02-01T16:09:14;8.23;;;3.43;;
7807;SDS011;3949;49.254;8.894;2023-02-01T16:11:42;5.43;;;2.60;;
7807;SDS011;3949;49.254;8.894;2023-02-01T16:14:12;6.80;;;3.03;;
7807;SDS011;3949;49.254;8.894;2023-02-01T16:16:38;8.53;;;3.27;;
7807;SDS011;3949;49.254;8.894;2023-02-01T16:19:04;11.40;;;3.23;;
7807;SDS011;3949;49.254;8.894;2023-02-01T16:21:30;8.13;;;2.70;;
7807;SDS011;3949;49.254;8.894;2023-02-01T16:23:56;8.03;;;2.57;;
7807;SDS011;3949;49.254;8.894;2023-02-01T16:26:22;5.40;;;2.60;;
7807;SDS011;3949;49.254;8.894;2023-02-01T16:28:48;6.93;;;2.90;;
7807;SDS011;3949;49.254;8.894;2023-02-01T16:31:15;8.13;;;3.00;;
7807;SDS011;3949;49.254;8.894;2023-02-01T16:33:48;11.33;;;3.17;;
7807;SDS011;3949;49.254;8.894;2023-02-01T16:36:14;6.93;;;2.50;;
7807;SDS011;3949;49.254;8.894;2023-02-01T16:38:41;6.67;;;2.07;;
7807;SDS011;3949;49.254;8.894;2023-02-01T16:41:08;9.33;;;2.97;;
7807;SDS011;3949;49.254;8.894;2023-02-01T16:43:35;7.30;;;2.90;;
7807;SDS011;3949;49.254;8.894;2023-02-01T16:46:01;10.23;;;2.57;;
7807;SDS011;3949;49.254;8.894;2023-02-01T16:48:29;8.70;;;2.70;;
7807;SDS011;3949;49.254;8.894;2023-02-01T16:50:57;8.90;;;2.90;;
7807;SDS011;3949;49.254;8.894;2023-02-01T16:53:25;7.00;;;2.50;;
7807;SDS011;3949;49.254;8.894;2023-02-01T16:55:52;6.37;;;2.47;;
7807;SDS011;3949;49.254;8.894;2023-02-01T16:58:19;9.23;;;2.73;;
7807;SDS011;3949;49.254;8.894;2023-02-01T17:00:46;7.67;;;2.23;;
7807;SDS011;3949;49.254;8.894;2023-02-01T17:03:13;8.90;;;2.43;;
7807;SDS011;3949;49.254;8.894;2023-02-01T17:05:41;10.93;;;3.30;;
7807;SDS011;3949;49.254;8.894;2023-02-01T17:08:09;10.70;;;2.93;;
7807;SDS011;3949;49.254;8.894;2023-02-01T17:10:36;7.60;;;2.97;;
7807;SDS011;3949;49.254;8.894;2023-02-01T17:13:02;6.00;;;2.50;;
7807;SDS011;3949;49.254;8.894;2023-02-01T17:15:29;6.67;;;2.60;;
7807;SDS011;3949;49.254;8.894;2023-02-01T17:17:58;7.93;;;2.93;;